Time;durP1;ratioP1;P1;durP2;ratioP2;P2;SDS_P1;SDS_P2;PMS_P1;PMS_P2;Temp;Humidity;BMP_temperature;BMP_pressure;BME280_temperature;BME280_humidity;BME280_pressure;Samples;Min_cycle;Max_cycle;Signal;HPM_P1;HPM_P2
2023/06/27 00:00:37;;;;;;;10.57;9.57;;;;;;;;;;6181851;28;20192;-63
2023/06/27 00:03:38;;;;;;;10.73;8.90;;;;;;;;;;6183645;28;20202;-63
2023/06/27 00:06:42;;;;;;;9.10;8.30;;;;;;;;;;6176449;28;20207;-63
2023/06/27 00:09:43;;;;;;;9.10;8.23;;;;;;;;;;6180959;28;20246;-63
2023/06/27 00:12:44;;;;;;;9.20;8.30;;;;;;;;;;6172736;28;20192;-64
2023/06/27 00:15:53;;;;;;;9.37;8.47;;;;;;;;;;6192786;28;20207;-63
2023/06/27 00:18:54;;;;;;;10.27;9.13;;;;;;;;;;6176967;28;20230;-63
2023/06/27 00:21:55;;;;;;;9.53;8.73;;;;;;;;;;6181079;28;20204;-63
2023/06/27 00:24:56;;;;;;;10.47;9.30;;;;;;;;;;6177657;28;20206;-63
2023/06/27 00:27:57;;;;;;;9.77;8.97;;;;;;;;;;6175114;28;20211;-63
2023/06/27 00:30:58;;;;;;;9.87;8.97;;;;;;;;;;6175244;28;20183;-63
2023/06/27 00:33:59;;;;;;;9.33;8.40;;;;;;;;;;6189498;28;20225;-63
2023/06/27 00:37:00;;;;;;;10.27;9.27;;;;;;;;;;6164193;28;20196;-63
2023/06/27 00:40:01;;;;;;;9.47;8.67;;;;;;;;;;6182415;28;20199;-63
2023/06/27 00:43:02;;;;;;;10.67;9.67;;;;;;;;;;6177400;28;20331;-63
2023/06/27 00:46:05;;;;;;;10.17;9.27;;;;;;;;;;6187209;28;20326;-63
2023/06/27 00:49:11;;;;;;;10.03;8.80;;;;;;;;;;6202230;28;20282;-63
2023/06/27 00:52:12;;;;;;;9.60;8.70;;;;;;;;;;6196260;28;20194;-63
2023/06/27 00:55:13;;;;;;;10.10;9.10;;;;;;;;;;6193388;28;20198;-63
2023/06/27 00:58:14;;;;;;;10.10;8.70;;;;;;;;;;6180123;28;20218;-63
2023/06/27 01:01:16;;;;;;;9.80;8.83;;;;;;;;;;6206139;28;20195;-63
2023/06/27 01:04:17;;;;;;;10.43;9.40;;;;;;;;;;6188609;28;20219;-63
2023/06/27 01:07:22;;;;;;;9.70;8.80;;;;;;;;;;6183486;28;20197;-63
2023/06/27 01:10:26;;;;;;;10.63;9.53;;;;;;;;;;6185640;28;20212;-63
2023/06/27 01:13:29;;;;;;;9.67;8.87;;;;;;;;;;6198627;28;20200;-63
2023/06/27 01:16:31;;;;;;;10.33;9.33;;;;;;;;;;6207024;28;20193;-63
2023/06/27 01:19:33;;;;;;;10.17;9.17;;;;;;;;;;6197584;28;20192;-63
2023/06/27 01:22:37;;;;;;;11.97;9.77;;;;;;;;;;6199574;28;20196;-63
2023/06/27 01:25:38;;;;;;;10.00;9.10;;;;;;;;;;6184926;28;20201;-63
2023/06/27 01:28:39;;;;;;;9.63;8.63;;;;;;;;;;6202329;28;20242;-64
2023/06/27 01:31:44;;;;;;;10.33;9.30;;;;;;;;;;6177406;28;20191;-64
2023/06/27 01:34:56;;;;;;;10.20;9.20;;;;;;;;;;6188670;28;20188;-64
2023/06/27 01:38:01;;;;;;;10.03;9.03;;;;;;;;;;6184736;28;20203;-64
2023/06/27 01:41:03;;;;;;;10.03;9.13;;;;;;;;;;6191332;28;20195;-64
2023/06/27 01:44:05;;;;;;;10.80;9.70;;;;;;;;;;6191147;28;20188;-64
2023/06/27 01:47:06;;;;;;;9.90;8.90;;;;;;;;;;6208119;28;20242;-64
2023/06/27 01:50:07;;;;;;;10.33;9.43;;;;;;;;;;6172950;28;20245;-64
2023/06/27 01:53:08;;;;;;;10.93;9.93;;;;;;;;;;6185719;28;20226;-64
2023/06/27 01:56:10;;;;;;;10.20;9.23;;;;;;;;;;6189608;28;20220;-64
2023/06/27 01:59:11;;;;;;;10.10;9.13;;;;;;;;;;6195371;28;20207;-64
2023/06/27 02:02:12;;;;;;;10.67;9.57;;;;;;;;;;6168762;28;20331;-64
2023/06/27 02:05:13;;;;;;;11.27;9.77;;;;;;;;;;6176359;28;20211;-63
2023/06/27 02:08:14;;;;;;;10.93;9.93;;;;;;;;;;6183357;28;20216;-63
2023/06/27 02:11:15;;;;;;;10.03;9.07;;;;;;;;;;6178329;28;20302;-63
2023/06/27 02:14:16;;;;;;;10.40;9.40;;;;;;;;;;6181694;28;20206;-63
2023/06/27 02:17:17;;;;;;;9.57;8.67;;;;;;;;;;6180543;28;20271;-63
2023/06/27 02:20:18;;;;;;;10.30;9.33;;;;;;;;;;6185804;28;20201;-63
2023/06/27 02:23:19;;;;;;;10.17;9.17;;;;;;;;;;6185642;28;20195;-63
2023/06/27 02:26:20;;;;;;;10.67;9.77;;;;;;;;;;6197842;28;20244;-63
2023/06/27 02:29:21;;;;;;;10.63;9.53;;;;;;;;;;6189359;28;20301;-63
2023/06/27 02:32:22;;;;;;;10.30;9.27;;;;;;;;;;6195822;28;20195;-63
2023/06/27 02:35:23;;;;;;;9.97;9.07;;;;;;;;;;6182406;28;20192;-63
2023/06/27 02:38:24;;;;;;;11.17;9.93;;;;;;;;;;6186361;28;20229;-63
2023/06/27 02:41:25;;;;;;;10.50;9.60;;;;;;;;;;6186509;28;20211;-63
2023/06/27 02:44:26;;;;;;;11.03;10.03;;;;;;;;;;6201861;28;20254;-63
2023/06/27 02:47:27;;;;;;;10.73;9.73;;;;;;;;;;6188289;28;20255;-63
2023/06/27 02:50:28;;;;;;;10.83;9.83;;;;;;;;;;6192238;28;20266;-63
2023/06/27 02:53:29;;;;;;;10.20;9.30;;;;;;;;;;6199091;28;20218;-63
2023/06/27 02:56:30;;;;;;;11.43;10.20;;;;;;;;;;6185104;28;20191;-63
2023/06/27 02:59:31;;;;;;;10.83;9.83;;;;;;;;;;6204136;28;20275;-63
2023/06/27 03:02:32;;;;;;;9.63;8.83;;;;;;;;;;6180715;28;20199;-63
2023/06/27 03:05:33;;;;;;;10.63;9.63;;;;;;;;;;6178752;28;20261;-63
2023/06/27 03:08:37;;;;;;;11.10;9.90;;;;;;;;;;6189234;28;20211;-63
2023/06/27 03:11:39;;;;;;;11.33;10.23;;;;;;;;;;6188059;28;20195;-65
2023/06/27 03:14:40;;;;;;;10.77;9.77;;;;;;;;;;6176732;28;20288;-63
2023/06/27 03:17:41;;;;;;;10.40;9.40;;;;;;;;;;6188659;28;20337;-63
2023/06/27 03:20:42;;;;;;;10.13;9.13;;;;;;;;;;6180499;28;20195;-63
2023/06/27 03:23:43;;;;;;;10.23;9.23;;;;;;;;;;6183484;28;20186;-63
2023/06/27 03:26:44;;;;;;;11.13;9.93;;;;;;;;;;6203205;28;20191;-63
2023/06/27 03:29:45;;;;;;;10.60;9.60;;;;;;;;;;6192080;28;20252;-64
2023/06/27 03:32:46;;;;;;;11.13;10.13;;;;;;;;;;6183481;28;20201;-62
2023/06/27 03:35:47;;;;;;;11.33;10.33;;;;;;;;;;6175900;28;20196;-64
2023/06/27 03:38:48;;;;;;;9.93;9.10;;;;;;;;;;6173784;28;20220;-63
2023/06/27 03:41:49;;;;;;;11.27;10.17;;;;;;;;;;6169608;28;20191;-63
2023/06/27 03:44:50;;;;;;;11.00;9.90;;;;;;;;;;6180763;28;20200;-63
2023/06/27 03:47:51;;;;;;;11.03;10.03;;;;;;;;;;6177908;28;20196;-63
2023/06/27 03:50:52;;;;;;;10.40;9.50;;;;;;;;;;6177995;28;20189;-63
2023/06/27 03:53:53;;;;;;;10.87;9.87;;;;;;;;;;6186087;28;20187;-63
2023/06/27 03:56:55;;;;;;;11.47;10.33;;;;;;;;;;6182886;28;20198;-63
2023/06/27 03:59:56;;;;;;;13.30;10.67;;;;;;;;;;6195255;28;20198;-64
2023/06/27 04:02:57;;;;;;;11.13;10.13;;;;;;;;;;6179994;28;20191;-63
2023/06/27 04:05:58;;;;;;;10.50;9.40;;;;;;;;;;6185226;28;20214;-62
2023/06/27 04:09:02;;;;;;;11.60;10.50;;;;;;;;;;6180995;28;20207;-62
2023/06/27 04:12:03;;;;;;;10.90;9.30;;;;;;;;;;6188179;28;20212;-63
2023/06/27 04:15:05;;;;;;;10.57;9.57;;;;;;;;;;6183048;28;20203;-63
2023/06/27 04:18:06;;;;;;;10.87;9.87;;;;;;;;;;6182678;28;20298;-62
2023/06/27 04:21:07;;;;;;;9.83;8.67;;;;;;;;;;6175741;28;20192;-62
2023/06/27 04:24:08;;;;;;;12.03;9.43;;;;;;;;;;6175597;28;20195;-64
2023/06/27 04:27:09;;;;;;;10.97;9.93;;;;;;;;;;6170203;28;20275;-65
2023/06/27 04:30:11;;;;;;;11.27;10.27;;;;;;;;;;6171604;28;20231;-66
2023/06/27 04:33:13;;;;;;;10.07;9.17;;;;;;;;;;6169857;28;20195;-64
2023/06/27 04:36:15;;;;;;;11.13;10.03;;;;;;;;;;6171117;28;20189;-65
2023/06/27 04:39:16;;;;;;;10.50;9.43;;;;;;;;;;6171797;28;20299;-65
2023/06/27 04:42:18;;;;;;;11.13;10.03;;;;;;;;;;6186034;28;20301;-65
2023/06/27 04:45:19;;;;;;;11.57;10.13;;;;;;;;;;6178361;28;20266;-65
2023/06/27 04:48:20;;;;;;;10.70;9.60;;;;;;;;;;6182653;28;20215;-65
2023/06/27 04:51:21;;;;;;;11.10;10.00;;;;;;;;;;6174663;28;20211;-64
2023/06/27 04:54:22;;;;;;;9.40;8.60;;;;;;;;;;6174455;28;20224;-62
2023/06/27 04:57:23;;;;;;;10.60;9.70;;;;;;;;;;6171962;28;20211;-62
2023/06/27 05:00:24;;;;;;;9.87;8.87;;;;;;;;;;6173451;28;20250;-62
2023/06/27 05:03:25;;;;;;;10.50;9.50;;;;;;;;;;6179261;28;20226;-62
2023/06/27 05:06:26;;;;;;;10.60;9.53;;;;;;;;;;6176937;28;20290;-63
2023/06/27 05:09:27;;;;;;;10.77;9.77;;;;;;;;;;6170249;28;20223;-63
2023/06/27 05:12:28;;;;;;;11.33;10.23;;;;;;;;;;6179025;28;20200;-62
2023/06/27 05:15:29;;;;;;;11.23;9.60;;;;;;;;;;6167594;28;20208;-61
2023/06/27 05:18:31;;;;;;;9.97;9.07;;;;;;;;;;6164627;28;20196;-62
2023/06/27 05:21:32;;;;;;;11.07;9.97;;;;;;;;;;6188453;28;20219;-63
2023/06/27 05:24:33;;;;;;;11.03;8.90;;;;;;;;;;6181716;28;20249;-62
2023/06/27 05:27:34;;;;;;;10.20;9.20;;;;;;;;;;6179643;28;20204;-62
2023/06/27 05:30:36;;;;;;;10.00;9.10;;;;;;;;;;6183598;28;20215;-62
2023/06/27 05:33:37;;;;;;;10.77;9.77;;;;;;;;;;6167310;28;20235;-62
2023/06/27 05:36:38;;;;;;;9.40;8.60;;;;;;;;;;6166871;28;20200;-62
2023/06/27 05:39:39;;;;;;;10.60;9.60;;;;;;;;;;6173431;28;20217;-62
2023/06/27 05:42:40;;;;;;;10.47;9.47;;;;;;;;;;6181669;28;20199;-62
2023/06/27 05:45:41;;;;;;;10.37;8.87;;;;;;;;;;6184011;28;20330;-62
2023/06/27 05:48:42;;;;;;;10.03;9.07;;;;;;;;;;6171664;28;20212;-62
2023/06/27 05:51:43;;;;;;;12.33;9.97;;;;;;;;;;6184326;28;20189;-62
2023/06/27 05:54:45;;;;;;;10.73;9.67;;;;;;;;;;6182529;28;20197;-62
2023/06/27 05:57:46;;;;;;;10.20;9.27;;;;;;;;;;6183283;28;20196;-62
2023/06/27 06:00:47;;;;;;;10.60;9.70;;;;;;;;;;6192416;28;20199;-62
2023/06/27 06:03:48;;;;;;;10.70;9.80;;;;;;;;;;6173609;28;20191;-62
2023/06/27 06:06:49;;;;;;;9.57;8.67;;;;;;;;;;6175641;28;20352;-62
2023/06/27 06:09:50;;;;;;;9.90;9.00;;;;;;;;;;6166359;28;20216;-62
2023/06/27 06:12:51;;;;;;;9.90;9.00;;;;;;;;;;6167759;28;20262;-62
2023/06/27 06:15:52;;;;;;;9.53;8.63;;;;;;;;;;6169786;28;20212;-62
2023/06/27 06:18:53;;;;;;;9.73;8.80;;;;;;;;;;6171850;28;20250;-62
2023/06/27 06:21:54;;;;;;;9.30;8.50;;;;;;;;;;6180134;28;20242;-62
2023/06/27 06:24:56;;;;;;;9.47;8.57;;;;;;;;;;6183985;28;20258;-62
2023/06/27 06:27:57;;;;;;;8.93;8.10;;;;;;;;;;6195860;28;20203;-62
2023/06/27 06:30:58;;;;;;;9.03;8.03;;;;;;;;;;6182674;28;20200;-62
2023/06/27 06:33:59;;;;;;;10.00;9.10;;;;;;;;;;6173915;28;20196;-62
2023/06/27 06:37:00;;;;;;;9.80;8.80;;;;;;;;;;6161786;28;20196;-62
2023/06/27 06:40:01;;;;;;;10.47;8.50;;;;;;;;;;6178723;28;20564;-62
2023/06/27 06:43:02;;;;;;;9.83;8.47;;;;;;;;;;6183145;28;20231;-62
2023/06/27 06:46:03;;;;;;;8.40;7.60;;;;;;;;;;6182337;28;20241;-62
2023/06/27 06:49:04;;;;;;;9.60;7.80;;;;;;;;;;6188983;28;20220;-62
2023/06/27 06:52:05;;;;;;;9.50;8.50;;;;;;;;;;6176948;28;20192;-62
2023/06/27 06:55:07;;;;;;;9.27;8.47;;;;;;;;;;6194953;28;20203;-62
2023/06/27 06:58:08;;;;;;;9.50;8.50;;;;;;;;;;6193949;28;20213;-62
2023/06/27 07:01:09;;;;;;;9.00;8.20;;;;;;;;;;6176851;28;20212;-62
2023/06/27 07:04:10;;;;;;;8.53;7.73;;;;;;;;;;6170825;28;20231;-62
2023/06/27 07:07:11;;;;;;;9.17;8.27;;;;;;;;;;6161766;28;20207;-62
2023/06/27 07:10:12;;;;;;;8.33;7.60;;;;;;;;;;6196164;28;20210;-62
2023/06/27 07:13:13;;;;;;;8.67;7.87;;;;;;;;;;6181134;28;20198;-62
2023/06/27 07:16:14;;;;;;;7.77;7.03;;;;;;;;;;6177551;28;20189;-62
2023/06/27 07:19:15;;;;;;;7.87;6.80;;;;;;;;;;6181732;28;20267;-62
2023/06/27 07:22:16;;;;;;;7.03;5.93;;;;;;;;;;6172672;28;20188;-62
2023/06/27 07:25:18;;;;;;;6.57;5.97;;;;;;;;;;6171626;28;20200;-62
2023/06/27 07:28:20;;;;;;;6.30;5.70;;;;;;;;;;6177700;28;20278;-62
2023/06/27 07:31:21;;;;;;;6.10;5.50;;;;;;;;;;6180125;28;20199;-62
2023/06/27 07:34:22;;;;;;;6.10;5.20;;;;;;;;;;6162859;28;20192;-62
2023/06/27 07:37:23;;;;;;;6.17;5.53;;;;;;;;;;6185972;28;20203;-62
2023/06/27 07:40:24;;;;;;;6.80;5.53;;;;;;;;;;6172566;28;20210;-62
2023/06/27 07:43:25;;;;;;;6.53;5.93;;;;;;;;;;6186979;28;20193;-62
2023/06/27 07:46:26;;;;;;;7.67;5.50;;;;;;;;;;6191248;28;20254;-62
2023/06/27 07:49:28;;;;;;;6.97;5.47;;;;;;;;;;6176090;28;20270;-63
2023/06/27 07:52:30;;;;;;;6.10;5.30;;;;;;;;;;6194273;28;20188;-63
2023/06/27 07:55:31;;;;;;;6.63;5.77;;;;;;;;;;6166832;28;20188;-62
2023/06/27 07:58:32;;;;;;;6.90;6.20;;;;;;;;;;6193533;28;20196;-62
2023/06/27 08:01:33;;;;;;;6.10;5.43;;;;;;;;;;6182609;28;20226;-62
2023/06/27 08:04:34;;;;;;;6.43;5.50;;;;;;;;;;6174602;28;20201;-62
2023/06/27 08:07:36;;;;;;;6.83;5.93;;;;;;;;;;6157544;28;20200;-62
2023/06/27 08:10:37;;;;;;;6.73;6.00;;;;;;;;;;6176575;28;20211;-63
2023/06/27 08:13:41;;;;;;;6.20;5.60;;;;;;;;;;6181256;28;20341;-63
2023/06/27 08:16:42;;;;;;;6.03;5.17;;;;;;;;;;6169728;28;20247;-63
2023/06/27 08:19:43;;;;;;;7.47;5.60;;;;;;;;;;6183952;28;20220;-63
2023/06/27 08:22:44;;;;;;;7.57;5.63;;;;;;;;;;6170413;28;20201;-63
2023/06/27 08:25:46;;;;;;;6.90;5.57;;;;;;;;;;6174830;28;20192;-62
2023/06/27 08:28:47;;;;;;;6.57;5.67;;;;;;;;;;6187604;28;20237;-63
2023/06/27 08:31:49;;;;;;;11.40;6.50;;;;;;;;;;6180364;28;20192;-62
2023/06/27 08:34:50;;;;;;;10.40;6.43;;;;;;;;;;6179353;28;20192;-62
2023/06/27 08:37:51;;;;;;;8.10;6.73;;;;;;;;;;6176026;28;20192;-63
2023/06/27 08:40:55;;;;;;;10.47;8.10;;;;;;;;;;6182315;28;20208;-63
2023/06/27 08:43:56;;;;;;;8.67;7.83;;;;;;;;;;6180437;28;20231;-63
2023/06/27 08:47:02;;;;;;;9.93;8.63;;;;;;;;;;6180794;28;20247;-62
2023/06/27 08:50:04;;;;;;;13.27;8.73;;;;;;;;;;6179486;28;20212;-63
2023/06/27 08:53:05;;;;;;;11.00;9.77;;;;;;;;;;6179815;28;20195;-63
2023/06/27 08:56:14;;;;;;;11.70;9.93;;;;;;;;;;6180852;28;20192;-62
2023/06/27 08:59:19;;;;;;;12.63;10.00;;;;;;;;;;6192731;28;20214;-62
2023/06/27 09:02:21;;;;;;;10.33;9.20;;;;;;;;;;6188037;28;20195;-62
2023/06/27 09:05:22;;;;;;;11.50;9.83;;;;;;;;;;6166803;28;20218;-62
2023/06/27 09:08:23;;;;;;;12.90;10.70;;;;;;;;;;6179405;28;20216;-62
2023/06/27 09:11:25;;;;;;;13.73;10.73;;;;;;;;;;6176991;28;20203;-62
2023/06/27 09:14:26;;;;;;;11.80;10.60;;;;;;;;;;6176334;28;20195;-62
2023/06/27 09:17:27;;;;;;;12.23;10.33;;;;;;;;;;6166316;28;20251;-62
2023/06/27 09:20:29;;;;;;;13.27;10.20;;;;;;;;;;6183911;28;20187;-62
2023/06/27 09:23:30;;;;;;;11.70;10.50;;;;;;;;;;6169924;28;20250;-62
2023/06/27 09:26:31;;;;;;;10.40;9.37;;;;;;;;;;6179662;28;20193;-62
2023/06/27 09:29:33;;;;;;;10.93;9.83;;;;;;;;;;6164044;28;20242;-63
2023/06/27 09:32:52;;;;;;;11.27;10.07;;;;;;;;;;6196399;28;20195;-62
2023/06/27 09:35:53;;;;;;;12.90;11.20;;;;;;;;;;6188471;28;20335;-63
2023/06/27 09:38:56;;;;;;;10.83;9.70;;;;;;;;;;6184500;28;20293;-63
2023/06/27 09:41:58;;;;;;;10.40;9.33;;;;;;;;;;6176868;28;20260;-62
2023/06/27 09:45:14;;;;;;;11.57;9.73;;;;;;;;;;6188884;28;20284;-62
2023/06/27 09:48:18;;;;;;;10.03;8.97;;;;;;;;;;6183603;28;20212;-62
2023/06/27 09:51:24;;;;;;;10.63;9.63;;;;;;;;;;6172251;28;20192;-62
2023/06/27 09:54:26;;;;;;;10.70;9.60;;;;;;;;;;6189723;28;20193;-62
2023/06/27 09:57:30;;;;;;;11.57;9.93;;;;;;;;;;6173619;28;20204;-62
2023/06/27 10:00:31;;;;;;;10.53;9.50;;;;;;;;;;6193526;28;20193;-62
2023/06/27 10:03:33;;;;;;;11.17;9.90;;;;;;;;;;6175845;28;20195;-62
2023/06/27 10:06:34;;;;;;;10.80;9.50;;;;;;;;;;6183781;28;20219;-62
2023/06/27 10:09:37;;;;;;;9.77;8.77;;;;;;;;;;6193311;28;20215;-62
2023/06/27 10:12:38;;;;;;;11.47;9.63;;;;;;;;;;6199697;28;20192;-62
2023/06/27 10:15:39;;;;;;;10.30;9.40;;;;;;;;;;6180122;28;20196;-62
2023/06/27 10:18:40;;;;;;;10.50;9.07;;;;;;;;;;6187990;28;20191;-62
2023/06/27 10:21:42;;;;;;;9.23;8.27;;;;;;;;;;6179716;28;20199;-62
2023/06/27 10:24:44;;;;;;;8.73;7.90;;;;;;;;;;6188315;28;20208;-62
2023/06/27 10:27:45;;;;;;;10.10;8.47;;;;;;;;;;6191372;28;20199;-62
2023/06/27 10:30:46;;;;;;;8.93;8.03;;;;;;;;;;6181081;28;20234;-62
2023/06/27 10:33:50;;;;;;;9.73;8.83;;;;;;;;;;6192049;28;20191;-62
2023/06/27 10:36:54;;;;;;;8.90;7.60;;;;;;;;;;6193410;28;20208;-62
2023/06/27 10:39:56;;;;;;;9.20;8.27;;;;;;;;;;6196369;28;20193;-62
2023/06/27 10:42:57;;;;;;;9.43;8.13;;;;;;;;;;6190127;28;20193;-62
2023/06/27 10:46:06;;;;;;;8.73;7.93;;;;;;;;;;6178352;28;20235;-62
2023/06/27 10:49:09;;;;;;;9.10;8.20;;;;;;;;;;6176212;28;20308;-62
2023/06/27 10:52:11;;;;;;;9.50;8.23;;;;;;;;;;6196758;28;20224;-62
2023/06/27 10:55:15;;;;;;;9.13;7.80;;;;;;;;;;6176661;28;20286;-62
2023/06/27 10:58:17;;;;;;;8.63;7.77;;;;;;;;;;6198546;28;20187;-63
2023/06/27 11:01:20;;;;;;;8.90;8.10;;;;;;;;;;6174996;28;20398;-63
2023/06/27 11:04:25;;;;;;;9.27;8.37;;;;;;;;;;6193381;28;20192;-63
2023/06/27 11:07:28;;;;;;;9.13;8.17;;;;;;;;;;6189680;28;20212;-63
2023/06/27 11:10:29;;;;;;;9.47;8.47;;;;;;;;;;6171873;28;20307;-63
2023/06/27 11:13:34;;;;;;;10.30;9.13;;;;;;;;;;6179482;28;20228;-63
2023/06/27 11:16:36;;;;;;;8.97;8.17;;;;;;;;;;6193161;28;20192;-63
2023/06/27 11:19:38;;;;;;;9.97;8.73;;;;;;;;;;6188920;28;20191;-63
2023/06/27 11:22:39;;;;;;;10.43;9.33;;;;;;;;;;6175663;28;20196;-63
2023/06/27 11:25:44;;;;;;;10.37;9.37;;;;;;;;;;6173166;28;20202;-63
2023/06/27 11:28:45;;;;;;;10.20;9.10;;;;;;;;;;6179976;28;20235;-63
2023/06/27 11:31:46;;;;;;;10.40;8.10;;;;;;;;;;6173417;28;20195;-63
2023/06/27 11:34:47;;;;;;;9.23;8.17;;;;;;;;;;6186749;28;20218;-63
2023/06/27 11:37:54;;;;;;;10.73;8.80;;;;;;;;;;6177805;28;20210;-63
2023/06/27 11:40:55;;;;;;;10.97;7.50;;;;;;;;;;6199243;28;20192;-63
2023/06/27 11:43:56;;;;;;;12.03;8.23;;;;;;;;;;6183345;28;20202;-63
2023/06/27 11:46:58;;;;;;;10.37;8.93;;;;;;;;;;6190938;28;20240;-63
2023/06/27 11:50:08;;;;;;;12.37;10.93;;;;;;;;;;6180185;28;20219;-63
2023/06/27 11:53:10;;;;;;;11.50;10.30;;;;;;;;;;6186998;28;20195;-63
2023/06/27 11:56:11;;;;;;;11.50;10.30;;;;;;;;;;6173833;28;20200;-62
2023/06/27 11:59:13;;;;;;;12.07;10.67;;;;;;;;;;6178368;28;20201;-63
2023/06/27 12:02:14;;;;;;;10.60;9.60;;;;;;;;;;6166221;28;20236;-63
2023/06/27 12:05:16;;;;;;;12.37;11.10;;;;;;;;;;6173526;28;20215;-62
2023/06/27 12:08:20;;;;;;;12.87;11.57;;;;;;;;;;6170926;28;20203;-63
2023/06/27 12:11:27;;;;;;;12.13;10.87;;;;;;;;;;6209151;28;20199;-63
2023/06/27 12:14:28;;;;;;;13.43;10.70;;;;;;;;;;6192641;28;20220;-63
2023/06/27 12:17:29;;;;;;;11.70;10.53;;;;;;;;;;6174200;28;20195;-62
2023/06/27 12:20:43;;;;;;;11.70;10.40;;;;;;;;;;6184637;28;20310;-62
2023/06/27 12:23:45;;;;;;;10.57;9.60;;;;;;;;;;6189322;28;20196;-62
2023/06/27 12:26:46;;;;;;;10.90;9.80;;;;;;;;;;6185905;28;20199;-62
2023/06/27 12:29:47;;;;;;;10.37;9.30;;;;;;;;;;6180766;28;20215;-62
2023/06/27 12:32:48;;;;;;;10.93;9.80;;;;;;;;;;6204627;28;20189;-62
2023/06/27 12:35:49;;;;;;;12.63;11.37;;;;;;;;;;6186068;28;20202;-62
2023/06/27 12:38:51;;;;;;;12.10;11.00;;;;;;;;;;6186924;28;20206;-63
2023/06/27 12:41:52;;;;;;;10.97;9.87;;;;;;;;;;6184749;28;20200;-63
2023/06/27 12:44:55;;;;;;;11.07;9.97;;;;;;;;;;6183309;28;20202;-62
2023/06/27 12:47:56;;;;;;;10.43;9.50;;;;;;;;;;6189168;28;20244;-63
2023/06/27 12:50:57;;;;;;;11.97;10.50;;;;;;;;;;6173851;28;20215;-63
2023/06/27 12:53:58;;;;;;;10.07;9.07;;;;;;;;;;6169295;28;20193;-63
2023/06/27 12:56:59;;;;;;;11.60;10.47;;;;;;;;;;6202165;28;20191;-63
2023/06/27 13:00:03;;;;;;;11.97;10.43;;;;;;;;;;6188662;28;20192;-64
2023/06/27 13:03:04;;;;;;;10.77;9.67;;;;;;;;;;6183015;28;20207;-63
2023/06/27 13:06:05;;;;;;;11.13;9.00;;;;;;;;;;6195228;28;20195;-62
2023/06/27 13:09:06;;;;;;;11.43;9.33;;;;;;;;;;6195183;28;20207;-63
2023/06/27 13:12:08;;;;;;;10.27;9.27;;;;;;;;;;6170783;28;20194;-63
2023/06/27 13:15:09;;;;;;;12.70;10.30;;;;;;;;;;6184591;28;20196;-63
2023/06/27 13:18:10;;;;;;;11.73;10.53;;;;;;;;;;6178407;28;20193;-63
2023/06/27 13:21:11;;;;;;;12.30;9.40;;;;;;;;;;6167606;28;20196;-63
2023/06/27 13:24:12;;;;;;;11.70;10.10;;;;;;;;;;6188006;28;20202;-63
2023/06/27 13:27:13;;;;;;;11.23;9.90;;;;;;;;;;6185721;28;20242;-63
2023/06/27 13:30:14;;;;;;;11.50;10.37;;;;;;;;;;6178373;28;20211;-62
2023/06/27 13:33:15;;;;;;;10.30;9.30;;;;;;;;;;6170901;28;20286;-63
2023/06/27 13:36:16;;;;;;;12.07;10.70;;;;;;;;;;6173616;28;20197;-63
2023/06/27 13:39:19;;;;;;;10.90;9.87;;;;;;;;;;6189014;28;20224;-63
2023/06/27 13:42:20;;;;;;;10.73;9.57;;;;;;;;;;6171970;28;20203;-63
2023/06/27 13:45:21;;;;;;;14.33;9.63;;;;;;;;;;6192742;28;20192;-63
2023/06/27 13:48:22;;;;;;;11.33;9.37;;;;;;;;;;6176882;28;20199;-63
2023/06/27 13:51:25;;;;;;;12.20;9.40;;;;;;;;;;6179759;28;20220;-65
2023/06/27 13:54:26;;;;;;;12.60;10.00;;;;;;;;;;6174501;28;20210;-63
2023/06/27 13:57:27;;;;;;;11.03;9.23;;;;;;;;;;6176924;28;20230;-64
2023/06/27 14:00:29;;;;;;;11.33;10.17;;;;;;;;;;6180876;28;20196;-64
2023/06/27 14:03:31;;;;;;;10.17;9.13;;;;;;;;;;6167546;28;20224;-65
2023/06/27 14:06:32;;;;;;;11.10;9.93;;;;;;;;;;6185992;28;20196;-62
2023/06/27 14:09:33;;;;;;;10.00;9.03;;;;;;;;;;6185897;28;20223;-62
2023/06/27 14:12:34;;;;;;;10.90;8.40;;;;;;;;;;6178081;28;20197;-63
2023/06/27 14:15:36;;;;;;;10.23;9.23;;;;;;;;;;6187214;28;20188;-63
2023/06/27 14:18:37;;;;;;;12.23;9.07;;;;;;;;;;6187651;28;20219;-63
2023/06/27 14:21:38;;;;;;;10.70;9.70;;;;;;;;;;6196103;28;20199;-63
2023/06/27 14:24:39;;;;;;;11.73;9.17;;;;;;;;;;6189831;28;20214;-62
2023/06/27 14:27:40;;;;;;;10.83;8.70;;;;;;;;;;6178836;28;20192;-62
2023/06/27 14:30:42;;;;;;;11.07;9.37;;;;;;;;;;6177965;28;20226;-62
2023/06/27 14:33:43;;;;;;;12.23;9.43;;;;;;;;;;6190133;28;20246;-62
2023/06/27 14:36:45;;;;;;;9.00;8.20;;;;;;;;;;6177192;28;20184;-62
2023/06/27 14:39:57;;;;;;;10.47;9.47;;;;;;;;;;6185423;28;20195;-63
2023/06/27 14:42:58;;;;;;;9.87;8.27;;;;;;;;;;6190445;28;20196;-63
2023/06/27 14:45:59;;;;;;;9.63;8.37;;;;;;;;;;6176650;28;20251;-62
2023/06/27 14:49:00;;;;;;;9.00;8.17;;;;;;;;;;6188272;28;20233;-63
2023/06/27 14:52:01;;;;;;;10.93;8.67;;;;;;;;;;6184358;28;20239;-63
2023/06/27 14:55:02;;;;;;;9.37;8.37;;;;;;;;;;6174781;28;20200;-63
2023/06/27 14:58:04;;;;;;;9.77;8.50;;;;;;;;;;6184841;28;20187;-62
2023/06/27 15:01:05;;;;;;;9.63;8.73;;;;;;;;;;6182720;28;20211;-62
2023/06/27 15:04:06;;;;;;;8.60;7.70;;;;;;;;;;6181908;28;20202;-63
2023/06/27 15:07:07;;;;;;;10.47;8.63;;;;;;;;;;6183730;28;20199;-63
2023/06/27 15:10:08;;;;;;;10.80;8.70;;;;;;;;;;6174764;28;20246;-63
2023/06/27 15:13:09;;;;;;;9.33;8.37;;;;;;;;;;6189622;28;20192;-62
2023/06/27 15:16:10;;;;;;;10.47;8.77;;;;;;;;;;6176037;28;20187;-63
2023/06/27 15:19:12;;;;;;;11.10;9.33;;;;;;;;;;6172640;28;20192;-63
2023/06/27 15:22:13;;;;;;;10.60;9.40;;;;;;;;;;6162698;28;20246;-63
2023/06/27 15:25:14;;;;;;;10.73;9.27;;;;;;;;;;6178386;28;20203;-63
2023/06/27 15:28:15;;;;;;;10.80;9.70;;;;;;;;;;6169623;28;20203;-63
2023/06/27 15:31:16;;;;;;;11.07;9.43;;;;;;;;;;6187868;28;20195;-62
2023/06/27 15:34:18;;;;;;;11.83;10.63;;;;;;;;;;6171618;28;20192;-61
2023/06/27 15:37:19;;;;;;;11.73;10.63;;;;;;;;;;6162707;28;20224;-62
2023/06/27 15:40:20;;;;;;;10.43;9.40;;;;;;;;;;6162748;28;20200;-62
2023/06/27 15:43:21;;;;;;;10.53;9.40;;;;;;;;;;6176865;28;20511;-62
2023/06/27 15:46:22;;;;;;;10.27;9.33;;;;;;;;;;6168065;28;20246;-62
2023/06/27 15:49:23;;;;;;;10.73;9.70;;;;;;;;;;6176390;28;20232;-62
2023/06/27 15:52:24;;;;;;;9.03;8.13;;;;;;;;;;6179045;28;20246;-62
2023/06/27 15:55:25;;;;;;;9.40;7.77;;;;;;;;;;6169515;28;20246;-62
2023/06/27 15:58:26;;;;;;;9.20;8.20;;;;;;;;;;6180295;28;20187;-62
2023/06/27 16:01:28;;;;;;;8.57;7.27;;;;;;;;;;6184556;28;20198;-62
2023/06/27 16:04:29;;;;;;;7.70;7.00;;;;;;;;;;6184879;28;20200;-61
2023/06/27 16:07:30;;;;;;;7.20;6.53;;;;;;;;;;6171894;28;20200;-61
2023/06/27 16:10:31;;;;;;;8.73;7.83;;;;;;;;;;6186419;28;20215;-62
2023/06/27 16:13:32;;;;;;;8.03;7.23;;;;;;;;;;6170077;28;20196;-62
2023/06/27 16:16:33;;;;;;;8.77;7.97;;;;;;;;;;6181689;28;20251;-62
2023/06/27 16:19:35;;;;;;;7.90;7.10;;;;;;;;;;6168061;28;20195;-62
2023/06/27 16:22:36;;;;;;;7.50;6.80;;;;;;;;;;6184220;28;20203;-61
2023/06/27 16:25:37;;;;;;;7.13;6.43;;;;;;;;;;6181973;28;20255;-63
2023/06/27 16:28:38;;;;;;;8.83;7.87;;;;;;;;;;6183325;28;20215;-62
2023/06/27 16:31:39;;;;;;;11.00;7.47;;;;;;;;;;6198933;28;20184;-63
2023/06/27 16:34:40;;;;;;;8.17;6.67;;;;;;;;;;6183902;28;20202;-62
2023/06/27 16:37:41;;;;;;;9.47;7.40;;;;;;;;;;6183865;28;20187;-62
2023/06/27 16:40:42;;;;;;;8.30;6.63;;;;;;;;;;6179373;28;20195;-62
2023/06/27 16:43:43;;;;;;;8.20;7.33;;;;;;;;;;6197159;28;20199;-62
2023/06/27 16:46:44;;;;;;;8.40;7.10;;;;;;;;;;6198301;28;20303;-62
2023/06/27 16:49:45;;;;;;;8.00;6.93;;;;;;;;;;6177371;28;20283;-62
2023/06/27 16:52:47;;;;;;;7.40;6.70;;;;;;;;;;6175109;28;20192;-62
2023/06/27 16:55:48;;;;;;;7.37;6.53;;;;;;;;;;6171644;28;20273;-62
2023/06/27 16:58:49;;;;;;;8.20;6.30;;;;;;;;;;6187828;28;20223;-62
2023/06/27 17:01:51;;;;;;;7.47;6.77;;;;;;;;;;6189689;28;20204;-62
2023/06/27 17:04:52;;;;;;;7.57;6.87;;;;;;;;;;6194233;28;20230;-62
2023/06/27 17:07:56;;;;;;;8.83;7.10;;;;;;;;;;6181448;28;20227;-63
2023/06/27 17:10:57;;;;;;;7.17;6.10;;;;;;;;;;6181255;28;20231;-63
2023/06/27 17:13:58;;;;;;;7.03;5.70;;;;;;;;;;6175253;28;20200;-62
2023/06/27 17:17:00;;;;;;;7.77;6.67;;;;;;;;;;6162586;28;20201;-62
2023/06/27 17:20:01;;;;;;;6.80;5.83;;;;;;;;;;6177950;28;20235;-62
2023/06/27 17:23:02;;;;;;;8.47;6.00;;;;;;;;;;6166380;28;20200;-62
2023/06/27 17:26:03;;;;;;;7.03;5.93;;;;;;;;;;6169037;28;20294;-63
2023/06/27 17:29:04;;;;;;;6.60;5.73;;;;;;;;;;6197841;28;20243;-61
2023/06/27 17:32:05;;;;;;;7.03;5.43;;;;;;;;;;6197026;28;20191;-62
2023/06/27 17:35:07;;;;;;;6.57;5.97;;;;;;;;;;6178215;28;20200;-62
2023/06/27 17:38:08;;;;;;;6.20;5.60;;;;;;;;;;6185396;28;20200;-61
2023/06/27 17:41:09;;;;;;;5.90;5.27;;;;;;;;;;6188318;28;20264;-62
2023/06/27 17:44:10;;;;;;;6.53;5.07;;;;;;;;;;6181024;28;20215;-61
2023/06/27 17:47:13;;;;;;;7.80;5.47;;;;;;;;;;6190844;28;20247;-61
2023/06/27 17:50:14;;;;;;;6.23;5.73;;;;;;;;;;6172605;28;20207;-62
2023/06/27 17:53:16;;;;;;;5.60;5.00;;;;;;;;;;6187179;28;20235;-62
2023/06/27 17:56:18;;;;;;;6.17;5.57;;;;;;;;;;6194328;28;20242;-62